Weerspreuk van de week: Is in de herfst het weer lang klaar, vroeg is een strenge winter daar.
Het weer levert geen direct gevaar op.    Er zijn geen waarschuwingen afgegeven.
Wil je droog trainen? Wil je spiermassa ontwikkelen? bestel snel!

Onweer radar Meer informatie blitzortung!


Regen radar Meer informatie rain snow radar


Bekijk deze sites ook eens:

Awekas

Canon

Het weer actueel

Nieuw horloge

FPL Automotive (TIP)

Paradigit

Autostekkers.nl (TIP)

Over Luyksgestel

Zooplus

De Kempen, mijn omgeving

Douglas

BOL.com

Weerstation Noordbergum

Inktweb

Weerstation Hapert

Weerstation Hoogeloon

Youfone

Weerstation Son&Breugel

Weerstation Castaert

Weerstation Tilburg Reeshof

Weerstation Scheulder

Weerverwachting Samos

Samos actueel

Weerwoord (forum)

Griekenlandforum

Wolven in Nederland



METAR rapporten vliegvelden

   
EBAW - Antwerp
Gewijzigd: 29-09-2021 03:50
Gedeeltelijk bewolkt  
Gedeeltelijk bewolkt  
   Wind: ZZO 16.7 km/h
Wind: ZZO 16.7 km/h
Temperatuur: 14°C
Dauwpunt: 10°C
Vochtigheid: 77%
Barometer: 1014 hPa
Bewolking: Gedeeltelijk bewolkt
Zicht: meer dan 10 km
Bewolking: Gedeeltelijk bewolkt 4400 ft
EBAW 290150Z AUTO 15009KT 9999 // SCT044/// 14/10 Q1014
EBLG - Liège
Gewijzigd: 29-09-2021 03:50
Helder  
Helder  
   Wind: Zuiden 16.7 km/h
Wind: Zuiden 16.7 km/h
Temperatuur: 12°C
Dauwpunt: 9°C
Vochtigheid: 82%
Barometer: 1016 hPa
Zicht: meer dan 10 km
Bewolking: Helder
EBLG 290150Z 18009KT CAVOK 12/09 Q1016 NOSIG
EBCV - Mons/Bergen
Gewijzigd: 29-09-2021 03:55
Bewolking  
Bewolking  
   Wind: ZZW 24.1 km/h
Wind: ZZW 24.1 km/h
Temperatuur: 13°C
Dauwpunt: 10°C
Vochtigheid: 82%
Barometer: 1014 hPa
Bewolking: Bewolking
Zicht: meer dan 10 km
Bewolking: Grotendeels bewolkt 6200 ft,
Bewolking 9500 ft
EBCV 290155Z AUTO 20013KT 9999 BKN062/// OVC095/// 13/10 Q1014 BLU
EHBK - Maastricht
Gewijzigd: 29-09-2021 03:55
Gedeeltelijk bewolkt  
Gedeeltelijk bewolkt  
   Wind: Zuiden 16.7 km/h
Wind: Zuiden 16.7 km/h
Temperatuur: 13°C
Dauwpunt: 9°C
Vochtigheid: 77%
Barometer: 1016 hPa
Bewolking: Gedeeltelijk bewolkt
Zicht: meer dan 10 km
Bewolking: Gedeeltelijk bewolkt
EHBK 290155Z AUTO 18009KT 140V210 9999 NSC 13/09 Q1016
ELLX - Luxemburg
Gewijzigd: 29-09-2021 03:50
Helder  
Helder  
   Wind: ZZW 7.4 km/h
Wind: ZZW 7.4 km/h
Temperatuur: 9°C
Voelt als: 8°C
Dauwpunt: 8°C
Vochtigheid: 94%
Barometer: 1018 hPa
Bewolking: Helder
Zicht: meer dan 10 km
Bewolking: Helder
ELLX 290150Z AUTO 20004KT 9999 NCD 09/08 Q1018 NOSIG
EBOS - Oostende
Gewijzigd: 29-09-2021 03:50
Licht bewolkt  
Licht bewolkt  
   Wind: ZZW 20.4 km/h
Wind: ZZW 20.4 km/h
Temperatuur: 12°C
Dauwpunt: 11°C
Vochtigheid: 94%
Barometer: 1013 hPa
Bewolking: Licht bewolkt
Zicht: meer dan 10 km
Bewolking: Licht bewolkt 2500 ft
EBOS 290150Z 20011KT 9999 FEW025 12/11 Q1013 TEMPO 4000 SHRA BECMG 27018G30KT

Script ontwikkeld door  Saratoga-weather.org Aangepast voor de template door  Weerstation Leuven

U vindt ons ook hier:

Het Weer Aktueel

UK Metoffice

European Weather Network

Weather Underground

AWEKAS

HAIR FUSION HAARGROEI